createdAt,value
2024-02-07T00:01:23.521Z,6.60
2024-02-07T00:03:50.533Z,6.60
2024-02-07T00:06:18.121Z,6.60
2024-02-07T00:08:45.054Z,6.60
2024-02-07T00:11:11.945Z,6.50
2024-02-07T00:13:38.919Z,6.50
2024-02-07T00:16:06.252Z,6.50
2024-02-07T00:18:33.378Z,6.50
2024-02-07T00:21:00.305Z,6.50
2024-02-07T00:23:27.118Z,6.40
2024-02-07T00:25:54.036Z,6.40
2024-02-07T00:28:21.106Z,6.40
2024-02-07T00:30:48.441Z,6.50
2024-02-07T00:33:15.342Z,6.40
2024-02-07T00:35:42.829Z,6.40
2024-02-07T00:38:09.725Z,6.40
2024-02-07T00:40:36.621Z,6.40
2024-02-07T00:43:04.708Z,6.40
2024-02-07T00:45:31.586Z,6.40
2024-02-07T00:47:58.489Z,6.40
2024-02-07T00:50:25.478Z,6.40
2024-02-07T00:52:52.611Z,6.40
2024-02-07T00:55:19.602Z,6.40
2024-02-07T00:57:48.185Z,6.40
2024-02-07T01:00:15.877Z,6.40
2024-02-07T01:02:43.468Z,6.40
2024-02-07T01:05:11.099Z,6.40
2024-02-07T01:07:38.577Z,6.50
2024-02-07T01:10:07.130Z,6.40
2024-02-07T01:12:34.074Z,6.40
2024-02-07T01:15:01.075Z,6.40
2024-02-07T01:17:27.988Z,6.50
2024-02-07T01:19:55.498Z,6.50
2024-02-07T01:22:22.652Z,6.50
2024-02-07T01:24:49.574Z,6.50
2024-02-07T01:27:16.519Z,6.50
2024-02-07T01:29:43.445Z,6.50
2024-02-07T01:32:11.202Z,6.60
2024-02-07T01:34:38.242Z,6.60
2024-02-07T01:37:06.518Z,6.70
2024-02-07T01:39:36.213Z,6.60
2024-02-07T01:42:04.016Z,6.70
2024-02-07T01:44:32.442Z,6.70
2024-02-07T01:47:12.625Z,6.70
2024-02-07T01:49:46.326Z,6.70
2024-02-07T01:52:14.894Z,6.70
2024-02-07T01:54:42.321Z,6.70
2024-02-07T01:57:09.936Z,6.70
2024-02-07T01:59:38.843Z,6.70
2024-02-07T02:02:06.201Z,6.60
2024-02-07T02:04:36.185Z,6.60
2024-02-07T02:07:03.110Z,6.70
2024-02-07T02:09:30.921Z,6.60
2024-02-07T02:11:58.724Z,6.60
2024-02-07T02:14:26.357Z,6.60
2024-02-07T02:16:53.525Z,6.60
2024-02-07T02:19:21.964Z,6.60
2024-02-07T02:22:13.834Z,6.60
2024-02-07T02:24:46.188Z,6.60
2024-02-07T02:27:31.353Z,6.60
2024-02-07T02:30:00.613Z,6.50
2024-02-07T02:32:28.872Z,6.60
2024-02-07T02:34:57.572Z,6.60
2024-02-07T02:37:24.743Z,6.50
2024-02-07T02:39:52.089Z,6.60
2024-02-07T02:42:18.978Z,6.60
2024-02-07T02:44:46.531Z,6.60
2024-02-07T02:47:14.377Z,6.60
2024-02-07T02:49:41.322Z,6.60
2024-02-07T02:52:08.275Z,6.70
2024-02-07T02:54:35.916Z,6.70
2024-02-07T02:57:03.835Z,6.70
2024-02-07T02:59:34.142Z,6.70
2024-02-07T03:02:09.704Z,6.70
2024-02-07T03:04:42.758Z,6.70
2024-02-07T03:07:28.616Z,6.80
2024-02-07T03:09:55.459Z,6.70
2024-02-07T03:12:22.350Z,6.80
2024-02-07T03:14:49.149Z,6.70
2024-02-07T03:17:16.255Z,6.80
2024-02-07T03:19:43.136Z,6.80
2024-02-07T03:22:10.645Z,6.80
2024-02-07T03:24:37.489Z,6.80
2024-02-07T03:27:04.449Z,6.80
2024-02-07T03:29:33.758Z,6.90
2024-02-07T03:32:00.710Z,6.90
2024-02-07T03:34:27.600Z,6.90
2024-02-07T03:36:54.489Z,6.90
2024-02-07T03:39:23.342Z,7.00
2024-02-07T03:41:50.356Z,7.00
2024-02-07T03:44:17.250Z,7.10
2024-02-07T03:46:44.117Z,7.10
2024-02-07T03:49:11.459Z,7.10
2024-02-07T03:51:39.279Z,7.20
2024-02-07T03:54:08.207Z,7.20
2024-02-07T03:56:35.735Z,7.20
2024-02-07T03:59:05.685Z,7.20
2024-02-07T04:01:32.687Z,7.20
2024-02-07T04:03:59.717Z,7.30
2024-02-07T04:06:26.883Z,7.20
2024-02-07T04:08:54.081Z,7.20
2024-02-07T04:11:21.550Z,7.30
2024-02-07T04:13:48.561Z,7.30
2024-02-07T04:16:34.234Z,7.30
2024-02-07T04:19:19.766Z,7.30
2024-02-07T04:22:05.435Z,7.40
2024-02-07T04:24:50.823Z,7.40
2024-02-07T04:27:36.073Z,7.40
2024-02-07T04:30:22.331Z,7.50
2024-02-07T04:33:07.760Z,7.50
2024-02-07T04:35:53.178Z,7.50
2024-02-07T04:38:42.075Z,7.60
2024-02-07T04:41:29.263Z,7.50
2024-02-07T04:44:14.559Z,7.50
2024-02-07T04:46:59.947Z,7.50
2024-02-07T04:49:45.603Z,7.50
2024-02-07T04:52:31.103Z,7.50
2024-02-07T04:55:17.046Z,7.50
2024-02-07T04:58:02.485Z,7.50
2024-02-07T05:00:47.970Z,7.50
2024-02-07T05:03:33.209Z,7.50
2024-02-07T05:06:18.637Z,7.50
2024-02-07T05:09:04.189Z,7.50
2024-02-07T05:11:49.556Z,7.50
2024-02-07T05:14:34.880Z,7.50
2024-02-07T05:17:01.720Z,7.40
2024-02-07T05:19:29.366Z,7.40
2024-02-07T05:21:56.346Z,7.50
2024-02-07T05:24:24.701Z,7.50
2024-02-07T05:26:51.589Z,7.40
2024-02-07T05:29:18.764Z,7.50
2024-02-07T05:31:46.413Z,7.40
2024-02-07T05:34:13.967Z,7.40
2024-02-07T05:36:40.988Z,7.40
2024-02-07T05:39:07.862Z,7.40
2024-02-07T05:41:34.724Z,7.40
2024-02-07T05:44:01.602Z,7.50
2024-02-07T05:46:28.493Z,7.50
2024-02-07T05:48:55.426Z,7.50
2024-02-07T05:51:24.024Z,7.50
2024-02-07T05:53:50.887Z,7.40
2024-02-07T05:56:17.984Z,7.40
2024-02-07T05:58:46.444Z,7.50
2024-02-07T06:01:14.675Z,7.50
2024-02-07T06:03:41.637Z,7.40
2024-02-07T06:06:08.738Z,7.40
2024-02-07T06:08:36.902Z,7.40
2024-02-07T06:11:05.249Z,7.50
2024-02-07T06:13:32.346Z,7.40
2024-02-07T06:15:59.998Z,7.50
2024-02-07T06:18:27.140Z,7.50
2024-02-07T06:20:54.396Z,7.50
2024-02-07T06:23:21.324Z,7.50
2024-02-07T06:25:49.545Z,7.60
2024-02-07T06:28:16.824Z,7.60
2024-02-07T06:30:45.180Z,7.60
2024-02-07T06:33:12.353Z,7.60
2024-02-07T06:35:39.289Z,7.60
2024-02-07T06:38:06.281Z,7.70
2024-02-07T06:40:33.399Z,7.60
2024-02-07T06:43:00.592Z,7.70
2024-02-07T06:45:27.963Z,7.70
2024-02-07T06:47:58.142Z,7.70
2024-02-07T06:50:25.821Z,7.70
2024-02-07T06:52:53.376Z,7.70
2024-02-07T06:55:20.917Z,7.70
2024-02-07T06:57:48.295Z,7.70
2024-02-07T07:00:16.208Z,7.70
2024-02-07T07:02:43.400Z,7.70
2024-02-07T07:05:13.708Z,7.70
2024-02-07T07:07:41.051Z,7.70
2024-02-07T07:10:09.054Z,7.80
2024-02-07T07:12:36.564Z,7.80
2024-02-07T07:15:06.951Z,7.80
2024-02-07T07:17:38.089Z,7.90
2024-02-07T07:20:06.285Z,7.90
2024-02-07T07:22:34.309Z,7.90
2024-02-07T07:25:01.455Z,7.90
2024-02-07T07:27:28.693Z,7.90
2024-02-07T07:29:55.682Z,8.00
2024-02-07T07:32:22.618Z,8.00
2024-02-07T07:34:49.999Z,8.00
2024-02-07T07:37:19.314Z,8.00
2024-02-07T07:39:46.845Z,8.00
2024-02-07T07:42:13.837Z,8.00
2024-02-07T07:44:43.366Z,8.10
2024-02-07T07:47:10.291Z,8.10
2024-02-07T07:49:37.379Z,8.10
2024-02-07T07:52:04.656Z,8.20
2024-02-07T07:54:33.232Z,8.20
2024-02-07T07:57:01.182Z,8.20
2024-02-07T07:59:28.261Z,8.20
2024-02-07T08:01:59.658Z,8.30
2024-02-07T08:04:27.350Z,8.30
2024-02-07T08:06:54.820Z,8.30
2024-02-07T08:09:22.033Z,8.30
2024-02-07T08:11:52.227Z,8.30
2024-02-07T08:14:19.291Z,8.30
2024-02-07T08:16:47.568Z,8.40
2024-02-07T08:19:15.615Z,8.30
2024-02-07T08:21:42.864Z,8.30
2024-02-07T08:24:09.866Z,8.30
2024-02-07T08:26:39.670Z,8.40
2024-02-07T08:29:06.653Z,8.40
2024-02-07T08:31:33.926Z,8.40
2024-02-07T08:34:01.156Z,8.40
2024-02-07T08:36:28.610Z,8.40
2024-02-07T08:38:55.893Z,8.40
2024-02-07T08:41:22.912Z,8.40
2024-02-07T08:43:50.473Z,8.40
2024-02-07T08:46:17.625Z,8.40
2024-02-07T08:48:48.369Z,8.40
2024-02-07T08:51:17.140Z,8.40
2024-02-07T08:53:44.376Z,8.50
2024-02-07T08:56:11.627Z,8.50
2024-02-07T08:58:39.887Z,8.50
2024-02-07T09:01:08.233Z,8.50
2024-02-07T09:03:35.693Z,8.50
2024-02-07T09:06:03.294Z,8.60
2024-02-07T09:08:30.756Z,8.50
2024-02-07T09:11:00.088Z,8.50
2024-02-07T09:13:27.660Z,8.50
2024-02-07T09:15:58.252Z,8.50
2024-02-07T09:18:26.621Z,8.50
2024-02-07T09:20:53.756Z,8.50
2024-02-07T09:23:20.599Z,8.50
2024-02-07T09:25:47.474Z,8.50
2024-02-07T09:28:14.425Z,8.50
2024-02-07T09:30:41.381Z,8.60
2024-02-07T09:33:11.352Z,8.60
2024-02-07T09:35:38.815Z,8.60
2024-02-07T09:38:05.928Z,8.60
2024-02-07T09:40:32.910Z,8.60
2024-02-07T09:43:01.704Z,8.60
2024-02-07T09:45:33.878Z,8.70
2024-02-07T09:48:28.297Z,8.70
2024-02-07T09:50:59.413Z,8.80
2024-02-07T09:53:27.709Z,8.80
2024-02-07T09:55:55.572Z,8.80
2024-02-07T09:58:23.790Z,8.80
2024-02-07T10:00:55.102Z,8.90
2024-02-07T10:03:26.061Z,8.90
2024-02-07T10:05:57.071Z,8.90
2024-02-07T10:08:25.225Z,8.90
2024-02-07T10:10:52.630Z,8.90
2024-02-07T10:13:20.314Z,9.00
2024-02-07T10:15:49.238Z,9.00
2024-02-07T10:18:16.316Z,9.00
2024-02-07T10:20:56.135Z,9.00
2024-02-07T10:23:23.844Z,9.00
2024-02-07T10:25:55.858Z,9.10
2024-02-07T10:28:26.101Z,9.00
2024-02-07T10:31:04.147Z,9.10
2024-02-07T10:33:41.193Z,9.20
2024-02-07T10:36:11.972Z,9.30
2024-02-07T10:38:39.162Z,9.40
2024-02-07T10:41:06.211Z,9.40
2024-02-07T10:43:41.883Z,9.50
2024-02-07T10:46:14.330Z,9.50
2024-02-07T10:48:42.701Z,9.40
2024-02-07T10:51:10.539Z,9.40
2024-02-07T10:53:37.936Z,9.40
2024-02-07T10:56:08.260Z,9.40
2024-02-07T10:58:35.774Z,9.40
2024-02-07T11:01:03.032Z,9.40
2024-02-07T11:03:34.919Z,9.30
2024-02-07T11:06:02.962Z,9.30
2024-02-07T11:08:30.775Z,9.20
2024-02-07T11:10:58.823Z,9.20
2024-02-07T11:13:27.863Z,9.30
2024-02-07T11:15:56.266Z,9.30
2024-02-07T11:18:23.177Z,9.30
2024-02-07T11:20:53.221Z,9.30
2024-02-07T11:23:32.316Z,9.30
2024-02-07T11:26:04.286Z,9.30
2024-02-07T11:28:31.478Z,9.30
2024-02-07T11:31:00.089Z,9.40
2024-02-07T11:33:27.306Z,9.40
2024-02-07T11:35:54.206Z,9.40
2024-02-07T11:38:21.603Z,9.50
2024-02-07T11:40:48.724Z,9.50
2024-02-07T11:43:24.757Z,9.60
2024-02-07T11:45:54.385Z,9.70
2024-02-07T11:48:25.588Z,9.90
2024-02-07T11:50:54.170Z,9.90
2024-02-07T11:53:27.841Z,10.00
2024-02-07T11:55:54.770Z,10.00
2024-02-07T11:58:24.349Z,10.00
2024-02-07T12:00:51.800Z,10.10
2024-02-07T12:03:19.467Z,10.10
2024-02-07T12:05:47.582Z,10.20
2024-02-07T12:08:15.895Z,10.30
2024-02-07T12:10:43.049Z,10.40
2024-02-07T12:13:12.240Z,10.40
2024-02-07T12:15:39.184Z,10.40
2024-02-07T12:18:09.999Z,10.40
2024-02-07T12:20:38.909Z,10.40
2024-02-07T12:23:07.560Z,10.50
2024-02-07T12:25:34.654Z,10.50
2024-02-07T12:28:14.175Z,10.60
2024-02-07T12:30:41.034Z,10.60
2024-02-07T12:33:09.098Z,10.60
2024-02-07T12:35:48.968Z,10.60
2024-02-07T12:38:17.542Z,10.60
2024-02-07T12:40:47.884Z,10.60
2024-02-07T12:43:16.225Z,10.60
2024-02-07T12:45:51.363Z,10.50
2024-02-07T12:48:18.472Z,10.60
2024-02-07T12:50:46.008Z,10.50
2024-02-07T12:53:13.466Z,10.60
2024-02-07T12:55:40.559Z,10.60
2024-02-07T12:58:07.536Z,10.50
2024-02-07T13:00:34.506Z,10.50
2024-02-07T13:03:01.333Z,10.50
2024-02-07T13:05:28.234Z,10.50
2024-02-07T13:07:55.267Z,10.50
2024-02-07T13:10:22.178Z,10.50
2024-02-07T13:12:49.313Z,10.40
2024-02-07T13:15:20.483Z,10.40
2024-02-07T13:17:49.388Z,10.40
2024-02-07T13:20:19.843Z,10.40
2024-02-07T13:22:48.716Z,10.40
2024-02-07T13:25:15.790Z,10.40
2024-02-07T13:27:44.000Z,10.40
2024-02-07T13:30:12.510Z,10.30
2024-02-07T13:32:39.840Z,10.30
2024-02-07T13:35:07.536Z,10.30
2024-02-07T13:37:34.540Z,10.30
2024-02-07T13:40:01.410Z,10.30
2024-02-07T13:42:28.271Z,10.30
2024-02-07T13:44:55.096Z,10.30
2024-02-07T13:47:22.007Z,10.40
2024-02-07T13:49:49.120Z,10.40
2024-02-07T13:52:16.349Z,10.40
2024-02-07T13:54:44.327Z,10.40
2024-02-07T13:57:11.241Z,10.30
2024-02-07T13:59:38.321Z,10.30
2024-02-07T14:02:05.436Z,10.30
2024-02-07T14:04:32.422Z,10.30
2024-02-07T14:06:59.399Z,10.30
2024-02-07T14:09:26.256Z,10.30
2024-02-07T14:11:53.126Z,10.30
2024-02-07T14:14:19.978Z,10.30
2024-02-07T14:16:47.073Z,10.20
2024-02-07T14:19:14.151Z,10.20
2024-02-07T14:21:40.995Z,10.20
2024-02-07T14:24:08.024Z,10.20
2024-02-07T14:26:34.941Z,10.10
2024-02-07T14:29:01.875Z,10.10
2024-02-07T14:31:28.870Z,10.10
2024-02-07T14:33:55.926Z,10.10
2024-02-07T14:36:22.826Z,10.10
2024-02-07T14:38:50.188Z,10.10
2024-02-07T14:41:17.559Z,10.10
2024-02-07T14:43:44.617Z,10.10
2024-02-07T14:46:15.554Z,10.10
2024-02-07T14:48:44.753Z,10.00
2024-02-07T14:51:11.892Z,10.00
2024-02-07T14:53:38.844Z,10.00
2024-02-07T14:56:07.062Z,9.90
2024-02-07T14:58:34.695Z,10.00
2024-02-07T15:01:01.842Z,10.00
2024-02-07T15:03:28.769Z,10.00
2024-02-07T15:05:57.340Z,10.00
2024-02-07T15:08:25.492Z,10.00
2024-02-07T15:10:52.773Z,10.00
2024-02-07T15:13:19.704Z,10.10
2024-02-07T15:15:46.663Z,10.10
2024-02-07T15:18:14.829Z,10.00
2024-02-07T15:20:42.211Z,10.00
2024-02-07T15:23:09.266Z,10.10
2024-02-07T15:25:36.547Z,10.10
2024-02-07T15:28:03.687Z,10.10
2024-02-07T15:30:33.678Z,10.10
2024-02-07T15:33:00.625Z,10.10
2024-02-07T15:35:27.621Z,10.00
2024-02-07T15:37:54.560Z,10.00
2024-02-07T15:40:23.302Z,10.00
2024-02-07T15:42:50.405Z,10.00
2024-02-07T15:45:17.236Z,9.90
2024-02-07T15:47:44.812Z,9.90
2024-02-07T15:50:12.063Z,9.80
2024-02-07T15:52:39.236Z,9.80
2024-02-07T15:55:07.048Z,9.70
2024-02-07T15:57:33.987Z,9.70
2024-02-07T16:00:00.897Z,9.70
2024-02-07T16:02:28.152Z,9.70
2024-02-07T16:04:55.353Z,9.70
2024-02-07T16:07:22.480Z,9.70
2024-02-07T16:09:50.797Z,9.60
2024-02-07T16:12:18.000Z,9.60
2024-02-07T16:14:44.906Z,9.50
2024-02-07T16:17:11.794Z,9.60
2024-02-07T16:19:38.713Z,9.50
2024-02-07T16:22:05.664Z,9.50
2024-02-07T16:24:34.904Z,9.40
2024-02-07T16:27:02.242Z,9.40
2024-02-07T16:29:29.064Z,9.40
2024-02-07T16:31:56.015Z,9.40
2024-02-07T16:34:22.992Z,9.40
2024-02-07T16:36:50.100Z,9.40
2024-02-07T16:39:16.896Z,9.40
2024-02-07T16:41:43.754Z,9.30
2024-02-07T16:44:10.808Z,9.30
2024-02-07T16:46:37.763Z,9.30
2024-02-07T16:49:05.675Z,9.30
2024-02-07T16:51:32.610Z,9.30
2024-02-07T16:53:59.656Z,9.30
2024-02-07T16:56:26.636Z,9.30
2024-02-07T16:58:53.656Z,9.20
2024-02-07T17:01:25.276Z,9.30
2024-02-07T17:03:53.601Z,9.30
2024-02-07T17:06:22.741Z,9.30
2024-02-07T17:08:50.131Z,9.30
2024-02-07T17:11:17.336Z,9.30
2024-02-07T17:13:44.354Z,9.20
2024-02-07T17:16:11.279Z,9.20
2024-02-07T17:18:38.251Z,9.20
2024-02-07T17:21:05.488Z,9.20
2024-02-07T17:23:33.177Z,9.30
2024-02-07T17:26:00.110Z,9.20
2024-02-07T17:28:27.258Z,9.20
2024-02-07T17:30:54.191Z,9.20
2024-02-07T17:33:21.279Z,9.20
2024-02-07T17:35:48.758Z,9.20
2024-02-07T17:38:15.813Z,9.20
2024-02-07T17:40:44.816Z,9.20
2024-02-07T17:43:12.428Z,9.30
2024-02-07T17:45:39.473Z,9.20
2024-02-07T17:48:07.268Z,9.20
2024-02-07T17:50:35.592Z,9.20
2024-02-07T17:53:04.874Z,9.20
2024-02-07T17:55:32.527Z,9.20
2024-02-07T17:57:59.673Z,9.20
2024-02-07T18:00:27.995Z,9.20
2024-02-07T18:02:55.214Z,9.10
2024-02-07T18:05:26.874Z,9.20
2024-02-07T18:07:56.783Z,9.20
2024-02-07T18:10:24.087Z,9.10
2024-02-07T18:12:51.147Z,9.10
2024-02-07T18:15:18.124Z,9.10
2024-02-07T18:17:45.420Z,9.10
2024-02-07T18:20:12.955Z,9.20
2024-02-07T18:22:40.237Z,9.10
2024-02-07T18:25:07.471Z,9.10
2024-02-07T18:27:35.771Z,9.10
2024-02-07T18:30:03.728Z,9.10
2024-02-07T18:32:30.724Z,9.10
2024-02-07T18:34:57.726Z,9.00
2024-02-07T18:37:25.562Z,9.10
2024-02-07T18:39:52.544Z,9.10
2024-02-07T18:42:19.779Z,9.10
2024-02-07T18:44:46.631Z,9.00
2024-02-07T18:47:13.710Z,9.00
2024-02-07T18:49:40.860Z,9.10
2024-02-07T18:52:08.157Z,9.10
2024-02-07T18:54:35.341Z,9.00
2024-02-07T18:57:02.393Z,9.10
2024-02-07T18:59:29.339Z,9.10
2024-02-07T19:01:56.337Z,9.10
2024-02-07T19:04:25.862Z,9.10
2024-02-07T19:06:53.183Z,9.10
2024-02-07T19:09:20.551Z,9.10
2024-02-07T19:11:47.608Z,9.10
2024-02-07T19:14:14.473Z,9.00
2024-02-07T19:16:44.208Z,9.00
2024-02-07T19:19:11.144Z,9.00
2024-02-07T19:21:38.033Z,9.10
2024-02-07T19:24:11.129Z,9.00
2024-02-07T19:26:37.910Z,9.00
2024-02-07T19:29:04.817Z,9.10
2024-02-07T19:31:33.899Z,9.00
2024-02-07T19:34:00.842Z,9.00
2024-02-07T19:36:27.697Z,9.00
2024-02-07T19:38:54.947Z,9.10
2024-02-07T19:41:22.157Z,9.00
2024-02-07T19:43:49.149Z,9.10
2024-02-07T19:46:16.074Z,9.00
2024-02-07T19:48:42.965Z,9.00
2024-02-07T19:51:11.895Z,9.00
2024-02-07T19:53:38.800Z,9.00
2024-02-07T19:56:06.317Z,9.00
2024-02-07T19:58:33.398Z,9.00
2024-02-07T20:01:00.449Z,9.00
2024-02-07T20:03:31.974Z,9.00
2024-02-07T20:05:59.270Z,8.90
2024-02-07T20:08:26.576Z,8.90
2024-02-07T20:10:53.980Z,8.90
2024-02-07T20:13:20.969Z,8.90
2024-02-07T20:15:47.892Z,8.90
2024-02-07T20:18:14.893Z,8.90
2024-02-07T20:20:41.817Z,8.90
2024-02-07T20:23:20.254Z,8.90
2024-02-07T20:26:03.676Z,8.90
2024-02-07T20:28:33.590Z,8.90
2024-02-07T20:31:00.463Z,8.90
2024-02-07T20:33:27.332Z,8.90
2024-02-07T20:35:54.183Z,8.90
2024-02-07T20:38:21.266Z,9.00
2024-02-07T20:40:48.302Z,8.90
2024-02-07T20:43:15.152Z,8.90
2024-02-07T20:45:42.162Z,8.90
2024-02-07T20:48:09.491Z,8.90
2024-02-07T20:50:37.388Z,8.90
2024-02-07T20:53:06.745Z,8.90
2024-02-07T20:55:33.995Z,8.90
2024-02-07T20:58:01.232Z,8.90
2024-02-07T21:00:30.889Z,9.00
2024-02-07T21:03:03.079Z,9.00
2024-02-07T21:05:30.477Z,8.90
2024-02-07T21:07:58.027Z,9.00
2024-02-07T21:10:25.730Z,8.90
2024-02-07T21:12:52.576Z,8.90
2024-02-07T21:15:19.497Z,8.90
2024-02-07T21:17:46.517Z,8.90
2024-02-07T21:20:15.679Z,8.80
2024-02-07T21:22:42.966Z,8.90
2024-02-07T21:25:10.098Z,8.90
2024-02-07T21:27:38.347Z,8.90
2024-02-07T21:30:05.754Z,8.80
2024-02-07T21:32:32.647Z,8.80
2024-02-07T21:34:59.701Z,8.80
2024-02-07T21:37:26.571Z,8.90
2024-02-07T21:39:53.409Z,8.80
2024-02-07T21:42:21.136Z,8.90
2024-02-07T21:44:48.303Z,8.90
2024-02-07T21:47:15.378Z,8.90
2024-02-07T21:49:43.793Z,8.90
2024-02-07T21:52:10.808Z,8.80
2024-02-07T21:54:38.756Z,8.90
2024-02-07T21:57:05.718Z,8.80
2024-02-07T21:59:32.538Z,8.80
2024-02-07T22:01:59.443Z,8.80
2024-02-07T22:04:29.674Z,8.80
2024-02-07T22:06:56.792Z,8.80
2024-02-07T22:09:23.767Z,8.80
2024-02-07T22:11:51.211Z,8.80
2024-02-07T22:14:20.241Z,8.80
2024-02-07T22:16:47.113Z,8.80
2024-02-07T22:19:14.150Z,8.80
2024-02-07T22:21:41.166Z,8.80
2024-02-07T22:24:08.072Z,8.80
2024-02-07T22:26:34.964Z,8.80
2024-02-07T22:29:02.387Z,8.90
2024-02-07T22:31:32.077Z,8.90
2024-02-07T22:33:59.355Z,8.90
2024-02-07T22:36:26.270Z,8.90
2024-02-07T22:38:54.785Z,8.90
2024-02-07T22:41:21.598Z,8.90
2024-02-07T22:43:48.563Z,8.90
2024-02-07T22:46:16.212Z,8.90
2024-02-07T22:48:46.546Z,9.00
2024-02-07T22:51:14.345Z,9.00
2024-02-07T22:53:41.695Z,9.00
2024-02-07T22:56:11.238Z,9.00
2024-02-07T22:58:38.432Z,9.10
2024-02-07T23:01:05.484Z,9.00
2024-02-07T23:03:32.781Z,9.00
2024-02-07T23:05:59.754Z,9.00
2024-02-07T23:08:26.743Z,9.00
2024-02-07T23:10:53.729Z,9.10
2024-02-07T23:13:20.777Z,9.00
2024-02-07T23:15:47.762Z,9.10
2024-02-07T23:18:14.804Z,9.00
2024-02-07T23:20:41.899Z,9.00
2024-02-07T23:23:08.910Z,9.00
2024-02-07T23:25:37.837Z,9.00
2024-02-07T23:28:06.454Z,9.10
2024-02-07T23:30:35.322Z,9.10
2024-02-07T23:33:02.658Z,9.10
2024-02-07T23:35:29.666Z,9.10
2024-02-07T23:37:56.586Z,9.10
2024-02-07T23:40:23.598Z,9.10
2024-02-07T23:42:50.475Z,9.00
2024-02-07T23:45:17.698Z,9.00
2024-02-07T23:47:44.639Z,9.00
2024-02-07T23:50:12.315Z,9.00
2024-02-07T23:52:39.159Z,9.10
2024-02-07T23:55:07.121Z,9.10
2024-02-07T23:57:35.448Z,9.10
